Time;durP1;ratioP1;P1;durP2;ratioP2;P2;SDS_P1;SDS_P2;PMS_P1;PMS_P2;Temp;Humidity;BMP_temperature;BMP_pressure;BME280_temperature;BME280_humidity;BME280_pressure;Samples;Min_cycle;Max_cycle;Signal;HPM_P1;HPM_P2
2023/03/17 00:00:39;;;;;;;5.40;3.30;;;;;;;;;;5093295;28;20514;-68
2023/03/17 00:03:06;;;;;;;4.20;3.33;;;;;;;;;;5103876;28;20948;-70
2023/03/17 00:05:34;;;;;;;3.90;3.00;;;;;;;;;;5102768;28;20475;-69
2023/03/17 00:08:04;;;;;;;6.73;4.00;;;;;;;;;;5099689;28;20456;-67
2023/03/17 00:10:30;;;;;;;6.23;4.10;;;;;;;;;;5100947;28;20550;-69
2023/03/17 00:12:57;;;;;;;5.40;3.70;;;;;;;;;;5090837;28;21367;-70
2023/03/17 00:15:26;;;;;;;4.00;3.50;;;;;;;;;;5099725;28;20456;-68
2023/03/17 00:17:54;;;;;;;7.80;3.70;;;;;;;;;;5103933;28;20524;-70
2023/03/17 00:20:25;;;;;;;6.10;3.97;;;;;;;;;;5097342;28;20444;-69
2023/03/17 00:22:51;;;;;;;5.00;3.40;;;;;;;;;;5103758;28;20447;-67
2023/03/17 00:25:22;;;;;;;5.20;3.50;;;;;;;;;;5103322;28;20443;-69
2023/03/17 00:27:49;;;;;;;10.43;4.13;;;;;;;;;;5103525;28;20458;-68
2023/03/17 00:30:16;;;;;;;5.07;3.63;;;;;;;;;;5101894;28;20547;-69
2023/03/17 00:32:45;;;;;;;4.40;3.50;;;;;;;;;;5103245;28;20503;-67
2023/03/17 00:35:16;;;;;;;5.77;3.80;;;;;;;;;;5101427;28;20456;-68
2023/03/17 00:37:42;;;;;;;3.93;3.23;;;;;;;;;;5101560;28;20868;-69
2023/03/17 00:40:09;;;;;;;8.53;4.00;;;;;;;;;;5097669;28;20885;-70
2023/03/17 00:42:35;;;;;;;4.10;3.57;;;;;;;;;;5102732;28;20447;-70
2023/03/17 00:45:02;;;;;;;6.77;4.50;;;;;;;;;;5096788;28;20916;-69
2023/03/17 00:47:28;;;;;;;4.97;3.50;;;;;;;;;;5099021;28;20598;-65
2023/03/17 00:49:57;;;;;;;5.50;3.87;;;;;;;;;;5103319;28;20468;-70
2023/03/17 00:52:25;;;;;;;4.20;3.50;;;;;;;;;;5083523;28;20496;-69
2023/03/17 00:54:52;;;;;;;5.20;3.73;;;;;;;;;;5102973;28;20475;-70
2023/03/17 00:57:18;;;;;;;5.10;3.10;;;;;;;;;;5102195;28;21026;-70
2023/03/17 00:59:45;;;;;;;6.10;4.07;;;;;;;;;;5098724;28;20521;-69
2023/03/17 01:02:12;;;;;;;5.40;3.23;;;;;;;;;;5091302;28;20483;-70
2023/03/17 01:04:39;;;;;;;5.23;3.60;;;;;;;;;;5100709;28;20453;-70
2023/03/17 01:07:10;;;;;;;7.33;3.60;;;;;;;;;;5102467;28;20538;-68
2023/03/17 01:09:36;;;;;;;8.50;3.50;;;;;;;;;;5101355;28;20483;-67
2023/03/17 01:12:02;;;;;;;4.20;3.20;;;;;;;;;;5095952;28;20479;-69
2023/03/17 01:14:29;;;;;;;5.30;3.60;;;;;;;;;;5094850;28;20445;-69
2023/03/17 01:16:56;;;;;;;5.00;3.33;;;;;;;;;;5098039;28;20476;-67
2023/03/17 01:19:22;;;;;;;5.70;3.33;;;;;;;;;;5099510;28;20479;-69
2023/03/17 01:21:49;;;;;;;6.63;3.67;;;;;;;;;;5102548;28;20468;-68
2023/03/17 01:24:16;;;;;;;4.13;3.70;;;;;;;;;;5094585;28;20443;-68
2023/03/17 01:26:43;;;;;;;4.77;3.80;;;;;;;;;;5102078;28;20479;-68
2023/03/17 01:29:10;;;;;;;5.97;3.77;;;;;;;;;;5101768;28;20510;-69
2023/03/17 01:31:36;;;;;;;4.43;3.40;;;;;;;;;;5100970;28;20467;-69
2023/03/17 01:34:03;;;;;;;4.90;4.17;;;;;;;;;;5102980;28;20435;-69
2023/03/17 01:36:29;;;;;;;5.70;3.90;;;;;;;;;;5101784;28;20481;-69
2023/03/17 01:38:56;;;;;;;4.07;3.37;;;;;;;;;;5102450;28;20490;-71
2023/03/17 01:41:23;;;;;;;4.90;3.40;;;;;;;;;;5102125;28;20475;-67
2023/03/17 01:43:50;;;;;;;5.73;3.93;;;;;;;;;;5101792;28;20443;-68
2023/03/17 01:46:20;;;;;;;5.17;3.40;;;;;;;;;;5101560;28;20498;-69
2023/03/17 01:48:51;;;;;;;3.17;2.87;;;;;;;;;;5102293;28;20483;-69
2023/03/17 01:51:21;;;;;;;4.10;3.00;;;;;;;;;;5102278;28;20528;-69
2023/03/17 01:53:49;;;;;;;4.17;3.60;;;;;;;;;;5102789;28;20432;-70
2023/03/17 01:56:16;;;;;;;5.17;3.40;;;;;;;;;;5102097;28;20475;-69
2023/03/17 01:58:45;;;;;;;8.80;3.40;;;;;;;;;;5101379;28;20470;-69
2023/03/17 02:01:12;;;;;;;4.73;2.90;;;;;;;;;;5098928;28;20543;-68
2023/03/17 02:03:39;;;;;;;3.90;3.50;;;;;;;;;;5101967;28;20458;-69
2023/03/17 02:06:06;;;;;;;6.30;3.70;;;;;;;;;;5101854;28;20900;-69
2023/03/17 02:08:33;;;;;;;5.17;3.40;;;;;;;;;;5101337;28;20469;-67
2023/03/17 02:11:01;;;;;;;5.73;3.60;;;;;;;;;;5101337;28;20501;-69
2023/03/17 02:13:27;;;;;;;5.70;3.60;;;;;;;;;;5102131;28;20566;-68
2023/03/17 02:15:55;;;;;;;3.90;3.20;;;;;;;;;;5100820;28;20510;-67
2023/03/17 02:18:22;;;;;;;8.40;3.50;;;;;;;;;;5101902;28;20516;-68
2023/03/17 02:21:13;;;;;;;4.20;3.10;;;;;;;;;;5093783;28;20863;-69
2023/03/17 02:23:40;;;;;;;7.20;3.37;;;;;;;;;;5102016;28;20463;-70
2023/03/17 02:26:07;;;;;;;4.80;4.00;;;;;;;;;;5101344;28;20528;-70
2023/03/17 02:28:34;;;;;;;4.30;3.30;;;;;;;;;;5099992;28;20481;-67
2023/03/17 02:31:01;;;;;;;4.33;3.43;;;;;;;;;;5099313;28;20506;-69
2023/03/17 02:33:28;;;;;;;4.60;3.73;;;;;;;;;;5101041;28;20444;-68
2023/03/17 02:35:55;;;;;;;5.63;3.30;;;;;;;;;;5100067;28;20533;-68
2023/03/17 02:38:21;;;;;;;4.53;3.40;;;;;;;;;;5094972;28;20449;-69
2023/03/17 02:40:49;;;;;;;5.07;3.50;;;;;;;;;;5092248;28;20494;-70
2023/03/17 02:43:16;;;;;;;4.73;3.47;;;;;;;;;;5101034;28;20435;-68
2023/03/17 02:45:42;;;;;;;5.13;2.90;;;;;;;;;;5099426;28;20494;-68
2023/03/17 02:48:09;;;;;;;4.50;3.87;;;;;;;;;;5101070;28;20509;-68
2023/03/17 02:50:36;;;;;;;5.57;3.70;;;;;;;;;;5100729;28;20506;-68
2023/03/17 02:53:02;;;;;;;4.30;3.33;;;;;;;;;;5100591;28;20444;-69
2023/03/17 02:55:29;;;;;;;5.00;4.53;;;;;;;;;;5097513;28;20525;-69
2023/03/17 02:57:57;;;;;;;4.50;3.77;;;;;;;;;;5100145;28;20443;-65
2023/03/17 03:00:23;;;;;;;4.67;3.27;;;;;;;;;;5100100;28;20506;-67
2023/03/17 03:02:49;;;;;;;6.30;3.80;;;;;;;;;;5099090;28;20685;-69
2023/03/17 03:05:16;;;;;;;4.80;3.70;;;;;;;;;;5100459;28;20444;-69
2023/03/17 03:07:42;;;;;;;5.10;3.77;;;;;;;;;;5101228;28;20461;-69
2023/03/17 03:10:09;;;;;;;6.30;3.60;;;;;;;;;;5094691;28;20504;-69
2023/03/17 03:12:36;;;;;;;7.83;4.03;;;;;;;;;;5099123;28;20974;-69
2023/03/17 03:15:05;;;;;;;4.67;3.63;;;;;;;;;;5096560;28;20589;-69
2023/03/17 03:17:32;;;;;;;4.13;3.37;;;;;;;;;;5104440;28;20805;-67
2023/03/17 03:19:58;;;;;;;5.47;4.20;;;;;;;;;;5104706;28;20456;-68
2023/03/17 03:22:25;;;;;;;5.13;4.07;;;;;;;;;;5084972;28;20475;-69
2023/03/17 03:24:51;;;;;;;5.40;3.40;;;;;;;;;;5084245;28;20472;-69
2023/03/17 03:27:18;;;;;;;4.37;3.50;;;;;;;;;;5102189;28;20498;-69
2023/03/17 03:29:45;;;;;;;5.00;3.57;;;;;;;;;;5100733;28;20518;-69
2023/03/17 03:32:13;;;;;;;6.40;3.67;;;;;;;;;;5103485;28;20483;-67
2023/03/17 03:34:39;;;;;;;4.93;3.40;;;;;;;;;;5104871;28;20474;-70
2023/03/17 03:37:05;;;;;;;4.73;3.77;;;;;;;;;;5103969;28;20494;-70
2023/03/17 03:39:32;;;;;;;7.80;6.13;;;;;;;;;;5102081;28;20494;-66
2023/03/17 03:41:58;;;;;;;5.67;4.20;;;;;;;;;;5104380;28;20499;-70
2023/03/17 03:44:25;;;;;;;6.03;4.30;;;;;;;;;;5104409;28;20554;-67
2023/03/17 03:46:51;;;;;;;7.93;4.10;;;;;;;;;;5102066;28;20877;-69
2023/03/17 03:49:19;;;;;;;5.03;3.53;;;;;;;;;;5103651;28;20473;-68
2023/03/17 03:51:46;;;;;;;5.47;3.37;;;;;;;;;;5103777;28;20467;-69
2023/03/17 03:54:12;;;;;;;4.97;3.37;;;;;;;;;;5104077;28;20465;-70
2023/03/17 03:56:39;;;;;;;8.90;4.17;;;;;;;;;;5097046;28;20494;-70
2023/03/17 03:59:06;;;;;;;6.17;3.93;;;;;;;;;;5103039;28;20511;-70
2023/03/17 04:01:32;;;;;;;6.43;3.40;;;;;;;;;;5094609;28;20486;-67
2023/03/17 04:03:58;;;;;;;6.73;5.13;;;;;;;;;;5104580;28;20428;-68
2023/03/17 04:06:26;;;;;;;6.23;4.20;;;;;;;;;;5101869;28;20491;-69
2023/03/17 04:08:53;;;;;;;6.93;3.97;;;;;;;;;;5104416;28;20460;-66
2023/03/17 04:11:19;;;;;;;5.07;3.60;;;;;;;;;;5095571;28;20512;-66
2023/03/17 04:13:45;;;;;;;4.90;4.13;;;;;;;;;;5101647;28;20519;-67
2023/03/17 04:16:12;;;;;;;5.00;4.00;;;;;;;;;;5097761;28;20487;-69
2023/03/17 04:18:38;;;;;;;5.13;4.13;;;;;;;;;;5104222;28;21043;-68
2023/03/17 04:21:05;;;;;;;4.33;3.87;;;;;;;;;;5098878;28;20517;-68
2023/03/17 04:23:33;;;;;;;4.93;3.93;;;;;;;;;;5103121;28;20424;-69
2023/03/17 04:26:00;;;;;;;4.10;3.40;;;;;;;;;;5103110;28;20472;-68
2023/03/17 04:28:26;;;;;;;4.77;4.27;;;;;;;;;;5103103;28;20542;-68
2023/03/17 04:30:53;;;;;;;5.10;4.60;;;;;;;;;;5101921;28;20487;-69
2023/03/17 04:33:19;;;;;;;5.37;4.30;;;;;;;;;;5103287;28;20499;-67
2023/03/17 04:35:48;;;;;;;4.00;3.70;;;;;;;;;;5102963;28;20490;-68
2023/03/17 04:38:15;;;;;;;4.80;4.03;;;;;;;;;;5098695;28;20496;-70
2023/03/17 04:40:42;;;;;;;10.33;4.20;;;;;;;;;;5102158;28;20543;-70
2023/03/17 04:43:09;;;;;;;6.50;4.13;;;;;;;;;;5102783;28;21007;-68
2023/03/17 04:45:36;;;;;;;7.50;4.17;;;;;;;;;;5102726;28;20843;-69
2023/03/17 04:48:02;;;;;;;5.53;4.47;;;;;;;;;;5103449;28;20431;-69
2023/03/17 04:50:29;;;;;;;6.60;4.87;;;;;;;;;;5096488;28;20487;-67
2023/03/17 04:52:55;;;;;;;6.50;4.50;;;;;;;;;;5098550;28;20460;-66
2023/03/17 04:55:21;;;;;;;6.97;4.83;;;;;;;;;;5095452;28;20445;-68
2023/03/17 04:57:49;;;;;;;4.70;4.20;;;;;;;;;;5095051;28;20463;-67
2023/03/17 05:00:17;;;;;;;8.30;4.17;;;;;;;;;;5093936;28;20570;-68
2023/03/17 05:02:43;;;;;;;7.40;4.93;;;;;;;;;;5094093;28;20455;-69
2023/03/17 05:05:09;;;;;;;5.47;4.13;;;;;;;;;;5082347;28;20532;-70
2023/03/17 05:07:36;;;;;;;4.97;4.47;;;;;;;;;;5083176;28;20860;-70
2023/03/17 05:10:02;;;;;;;5.23;4.50;;;;;;;;;;5082291;28;20539;-70
2023/03/17 05:12:29;;;;;;;4.67;3.97;;;;;;;;;;5082000;28;20540;-70
2023/03/17 05:14:57;;;;;;;7.20;4.53;;;;;;;;;;5082552;28;20452;-67
2023/03/17 05:17:23;;;;;;;6.87;5.10;;;;;;;;;;5093835;28;20467;-69
2023/03/17 05:19:50;;;;;;;5.77;5.17;;;;;;;;;;5097929;28;20455;-67
2023/03/17 05:22:16;;;;;;;6.93;4.53;;;;;;;;;;5102041;28;21059;-67
2023/03/17 05:24:42;;;;;;;8.30;5.20;;;;;;;;;;5102957;28;20440;-69
2023/03/17 05:27:09;;;;;;;6.20;4.20;;;;;;;;;;5098696;28;20499;-69
2023/03/17 05:29:35;;;;;;;6.17;4.93;;;;;;;;;;5101588;28;20502;-66
2023/03/17 05:32:03;;;;;;;7.37;4.60;;;;;;;;;;5100451;28;20532;-66
2023/03/17 05:34:30;;;;;;;5.50;4.90;;;;;;;;;;5094493;28;20456;-67
2023/03/17 05:36:56;;;;;;;8.33;4.47;;;;;;;;;;5107437;28;20483;-67
2023/03/17 05:39:23;;;;;;;6.83;4.73;;;;;;;;;;5093240;28;20586;-66
2023/03/17 05:41:50;;;;;;;8.20;5.80;;;;;;;;;;5098815;28;20998;-66
2023/03/17 05:44:16;;;;;;;6.87;5.10;;;;;;;;;;5099877;28;20826;-66
2023/03/17 05:46:42;;;;;;;7.43;4.70;;;;;;;;;;5100078;28;20507;-67
2023/03/17 05:49:10;;;;;;;7.00;5.60;;;;;;;;;;5106312;28;20460;-65
2023/03/17 05:51:36;;;;;;;6.23;4.50;;;;;;;;;;5096940;28;20547;-67
2023/03/17 05:54:03;;;;;;;8.10;5.07;;;;;;;;;;5096370;28;20451;-66
2023/03/17 05:56:32;;;;;;;8.07;5.90;;;;;;;;;;5094383;28;20535;-65
2023/03/17 05:58:59;;;;;;;7.70;5.93;;;;;;;;;;5082238;28;20472;-64
2023/03/17 06:01:26;;;;;;;6.50;4.77;;;;;;;;;;5080721;28;20499;-64
2023/03/17 06:03:52;;;;;;;4.93;4.13;;;;;;;;;;5081641;28;20478;-67
2023/03/17 06:06:20;;;;;;;6.43;5.10;;;;;;;;;;5098182;28;20467;-67
2023/03/17 06:08:47;;;;;;;8.23;5.50;;;;;;;;;;5102478;28;20455;-67
2023/03/17 06:11:13;;;;;;;6.90;5.00;;;;;;;;;;5101424;28;20499;-66
2023/03/17 06:13:40;;;;;;;5.37;4.87;;;;;;;;;;5099813;28;20526;-66
2023/03/17 06:16:07;;;;;;;7.00;5.27;;;;;;;;;;5095923;28;20491;-67
2023/03/17 06:18:33;;;;;;;6.10;4.57;;;;;;;;;;5101854;28;20460;-66
2023/03/17 06:21:00;;;;;;;5.53;4.10;;;;;;;;;;5103155;28;20546;-67
2023/03/17 06:23:28;;;;;;;5.63;4.60;;;;;;;;;;5101634;28;20443;-67
2023/03/17 06:25:55;;;;;;;6.43;4.97;;;;;;;;;;5091723;28;20468;-68
2023/03/17 06:28:21;;;;;;;5.57;4.77;;;;;;;;;;5095830;28;20447;-66
2023/03/17 06:30:48;;;;;;;4.87;3.97;;;;;;;;;;5087323;28;21465;-67
2023/03/17 06:33:16;;;;;;;6.57;4.80;;;;;;;;;;5087343;28;20455;-67
2023/03/17 06:35:43;;;;;;;7.27;4.90;;;;;;;;;;5092903;28;20499;-68
2023/03/17 06:38:09;;;;;;;5.53;4.77;;;;;;;;;;5100937;28;20475;-67
2023/03/17 06:40:37;;;;;;;4.90;4.40;;;;;;;;;;5083835;28;20498;-66
2023/03/17 06:43:04;;;;;;;5.13;4.17;;;;;;;;;;5092448;28;20507;-67
2023/03/17 06:45:31;;;;;;;5.70;4.80;;;;;;;;;;5099374;28;20495;-66
2023/03/17 06:47:57;;;;;;;6.30;4.70;;;;;;;;;;5100861;28;20450;-67
2023/03/17 06:50:24;;;;;;;5.70;5.07;;;;;;;;;;5090234;28;20510;-67
2023/03/17 06:52:51;;;;;;;6.87;4.73;;;;;;;;;;5098683;28;20512;-67
2023/03/17 06:55:17;;;;;;;6.20;4.83;;;;;;;;;;5096198;28;20447;-68
2023/03/17 06:57:45;;;;;;;5.43;4.50;;;;;;;;;;5102862;28;20447;-68
2023/03/17 07:00:13;;;;;;;5.33;4.50;;;;;;;;;;5095744;28;20507;-68
2023/03/17 07:02:40;;;;;;;9.80;4.43;;;;;;;;;;5096615;28;20459;-68
2023/03/17 07:05:07;;;;;;;7.30;4.70;;;;;;;;;;5095640;28;20448;-67
2023/03/17 07:07:34;;;;;;;5.17;4.53;;;;;;;;;;5097113;28;20457;-68
2023/03/17 07:10:00;;;;;;;6.10;4.90;;;;;;;;;;5100077;28;20462;-67
2023/03/17 07:12:27;;;;;;;6.60;4.87;;;;;;;;;;5096463;28;20472;-65
2023/03/17 07:14:55;;;;;;;7.27;4.73;;;;;;;;;;5100429;28;20455;-67
2023/03/17 07:17:22;;;;;;;7.10;4.87;;;;;;;;;;5100329;28;20596;-67
2023/03/17 07:19:49;;;;;;;8.00;4.80;;;;;;;;;;5100098;28;20463;-68
2023/03/17 07:22:15;;;;;;;5.57;4.97;;;;;;;;;;5088733;28;20510;-67
2023/03/17 07:24:42;;;;;;;5.50;4.53;;;;;;;;;;5098536;28;20703;-67
2023/03/17 07:27:08;;;;;;;6.70;4.37;;;;;;;;;;5090102;28;20503;-68
2023/03/17 07:29:35;;;;;;;6.80;4.70;;;;;;;;;;5096711;28;20483;-69
2023/03/17 07:32:05;;;;;;;7.60;4.60;;;;;;;;;;5092644;28;20475;-68
2023/03/17 07:34:32;;;;;;;4.10;3.60;;;;;;;;;;5100271;28;20948;-68
2023/03/17 07:36:58;;;;;;;5.17;3.90;;;;;;;;;;5095004;28;21171;-69
2023/03/17 07:39:25;;;;;;;4.30;3.90;;;;;;;;;;5091764;28;20451;-69
2023/03/17 07:41:53;;;;;;;5.20;4.07;;;;;;;;;;5090579;28;20499;-69
2023/03/17 07:44:21;;;;;;;5.83;4.77;;;;;;;;;;5100039;28;20448;-68
2023/03/17 07:46:48;;;;;;;4.97;4.47;;;;;;;;;;5087758;28;20538;-69
2023/03/17 07:49:16;;;;;;;8.77;4.13;;;;;;;;;;5082230;28;20969;-69
2023/03/17 07:51:42;;;;;;;6.17;3.63;;;;;;;;;;5102725;28;20484;-68
2023/03/17 07:54:09;;;;;;;5.13;4.40;;;;;;;;;;5092274;28;20441;-68
2023/03/17 07:56:36;;;;;;;6.40;4.50;;;;;;;;;;5096753;28;20471;-69
2023/03/17 07:59:02;;;;;;;5.07;3.67;;;;;;;;;;5089443;28;20494;-69
2023/03/17 08:01:29;;;;;;;5.07;3.90;;;;;;;;;;5089373;28;20475;-68
2023/03/17 08:03:56;;;;;;;4.67;3.30;;;;;;;;;;5095041;28;20450;-68
2023/03/17 08:06:25;;;;;;;4.00;3.63;;;;;;;;;;5105704;28;20477;-68
2023/03/17 08:08:52;;;;;;;6.67;4.20;;;;;;;;;;5101393;28;21093;-68
2023/03/17 08:11:18;;;;;;;4.60;3.40;;;;;;;;;;5102447;28;20467;-68
2023/03/17 08:13:45;;;;;;;5.50;3.67;;;;;;;;;;5098412;28;20496;-67
2023/03/17 08:16:11;;;;;;;5.70;3.77;;;;;;;;;;5097935;28;20502;-68
2023/03/17 08:18:38;;;;;;;7.43;3.57;;;;;;;;;;5095173;28;21001;-68
2023/03/17 08:21:05;;;;;;;5.27;3.50;;;;;;;;;;5097520;28;20492;-68
2023/03/17 08:23:33;;;;;;;3.63;3.07;;;;;;;;;;5092081;28;21164;-68
2023/03/17 08:26:00;;;;;;;5.03;3.70;;;;;;;;;;5094335;28;20538;-68
2023/03/17 08:28:27;;;;;;;6.40;3.87;;;;;;;;;;5093111;28;20498;-68
2023/03/17 08:30:54;;;;;;;5.03;3.67;;;;;;;;;;5086529;28;20484;-68
2023/03/17 08:33:21;;;;;;;8.20;4.60;;;;;;;;;;5091435;28;20636;-68
2023/03/17 08:35:47;;;;;;;5.50;3.73;;;;;;;;;;5089481;28;20540;-68
2023/03/17 08:38:13;;;;;;;4.73;3.90;;;;;;;;;;5101901;28;21046;-68
2023/03/17 08:40:41;;;;;;;6.03;4.10;;;;;;;;;;5086669;28;20499;-68
2023/03/17 08:43:08;;;;;;;6.77;3.97;;;;;;;;;;5096924;28;20943;-69
2023/03/17 08:45:34;;;;;;;7.77;3.67;;;;;;;;;;5100066;28;20495;-68
2023/03/17 08:48:02;;;;;;;5.47;3.80;;;;;;;;;;5089236;28;20454;-69
2023/03/17 08:50:29;;;;;;;5.70;3.90;;;;;;;;;;5101561;28;20502;-69
2023/03/17 08:52:55;;;;;;;5.97;3.63;;;;;;;;;;5098160;28;20558;-68
2023/03/17 08:55:22;;;;;;;4.90;3.40;;;;;;;;;;5103219;28;20574;-69
2023/03/17 08:57:50;;;;;;;5.07;3.43;;;;;;;;;;5103970;28;20706;-68
2023/03/17 09:00:19;;;;;;;5.00;3.00;;;;;;;;;;5101411;28;20488;-69
2023/03/17 09:02:45;;;;;;;3.10;2.27;;;;;;;;;;5095609;28;20877;-69
2023/03/17 09:05:13;;;;;;;3.30;2.53;;;;;;;;;;5101293;28;20475;-68
2023/03/17 09:07:40;;;;;;;3.03;2.57;;;;;;;;;;5091806;28;20607;-69
2023/03/17 09:10:07;;;;;;;3.03;2.50;;;;;;;;;;5094075;28;20955;-67
2023/03/17 09:12:34;;;;;;;3.13;2.27;;;;;;;;;;5096468;28;20498;-68
2023/03/17 09:15:02;;;;;;;5.30;2.73;;;;;;;;;;5093434;28;20479;-68
2023/03/17 09:17:28;;;;;;;3.40;2.33;;;;;;;;;;5101812;28;20821;-69
2023/03/17 09:19:55;;;;;;;4.00;2.20;;;;;;;;;;5101805;28;20465;-68
2023/03/17 09:22:21;;;;;;;2.80;2.20;;;;;;;;;;5101312;28;20475;-68
2023/03/17 09:24:48;;;;;;;3.30;2.60;;;;;;;;;;5100714;28;20451;-66
2023/03/17 09:27:15;;;;;;;4.13;2.50;;;;;;;;;;5096508;28;20479;-66
2023/03/17 09:29:41;;;;;;;2.50;2.30;;;;;;;;;;5093216;28;20901;-66
2023/03/17 09:32:10;;;;;;;3.27;1.87;;;;;;;;;;5094096;28;20551;-66
2023/03/17 09:34:36;;;;;;;4.63;2.57;;;;;;;;;;5099673;28;20467;-66
2023/03/17 09:37:02;;;;;;;3.90;3.27;;;;;;;;;;5101089;28;20506;-67
2023/03/17 09:39:29;;;;;;;3.23;2.20;;;;;;;;;;5095809;28;20455;-67
2023/03/17 09:42:05;;;;;;;4.07;2.40;;;;;;;;;;5100961;28;20475;-67
2023/03/17 09:44:40;;;;;;;3.73;2.83;;;;;;;;;;5096930;28;20451;-67
2023/03/17 09:47:16;;;;;;;2.57;2.20;;;;;;;;;;5093686;28;20486;-66
2023/03/17 09:49:45;;;;;;;4.50;2.60;;;;;;;;;;5096264;28;20485;-66
2023/03/17 09:52:13;;;;;;;4.70;2.70;;;;;;;;;;5101168;28;20543;-66
2023/03/17 09:54:40;;;;;;;3.60;2.90;;;;;;;;;;5101319;28;21021;-68
2023/03/17 09:57:12;;;;;;;4.83;2.50;;;;;;;;;;5101051;28;20518;-67
2023/03/17 09:59:40;;;;;;;2.67;2.17;;;;;;;;;;5098330;28;20871;-67
2023/03/17 10:02:15;;;;;;;3.37;2.47;;;;;;;;;;5087628;28;20491;-67
2023/03/17 10:04:43;;;;;;;3.70;2.50;;;;;;;;;;5100114;28;20489;-67
2023/03/17 10:07:14;;;;;;;4.43;2.27;;;;;;;;;;5085129;28;20581;-67
2023/03/17 10:09:46;;;;;;;3.37;2.73;;;;;;;;;;5098083;28;20455;-67
2023/03/17 10:12:16;;;;;;;3.80;2.30;;;;;;;;;;5093716;28;20483;-67
2023/03/17 10:14:47;;;;;;;4.73;2.60;;;;;;;;;;5099633;28;20982;-67
2023/03/17 10:17:18;;;;;;;6.20;2.10;;;;;;;;;;5099243;28;20468;-67
2023/03/17 10:19:47;;;;;;;3.30;2.43;;;;;;;;;;5092836;28;20467;-66
2023/03/17 10:22:18;;;;;;;3.07;2.33;;;;;;;;;;5094830;28;20467;-67
2023/03/17 10:24:46;;;;;;;3.77;2.60;;;;;;;;;;5097037;28;20883;-66
2023/03/17 10:27:14;;;;;;;3.10;2.03;;;;;;;;;;5091888;28;20483;-67
2023/03/17 10:29:41;;;;;;;3.07;2.33;;;;;;;;;;5093851;28;20539;-67
2023/03/17 10:32:10;;;;;;;2.70;1.90;;;;;;;;;;5090615;28;20573;-67
2023/03/17 10:34:40;;;;;;;5.80;2.30;;;;;;;;;;5089881;28;20889;-66
2023/03/17 10:37:07;;;;;;;4.27;2.60;;;;;;;;;;5099016;28;20489;-66
2023/03/17 10:39:41;;;;;;;3.77;3.00;;;;;;;;;;5092168;28;20482;-66
2023/03/17 10:42:10;;;;;;;4.97;2.50;;;;;;;;;;5092446;28;20491;-66
2023/03/17 10:44:39;;;;;;;6.37;2.57;;;;;;;;;;5095577;28;20474;-66
2023/03/17 10:47:07;;;;;;;4.77;2.90;;;;;;;;;;5088747;28;20835;-67
2023/03/17 10:49:35;;;;;;;3.17;2.63;;;;;;;;;;5097605;28;20459;-67
2023/03/17 10:52:06;;;;;;;6.13;2.67;;;;;;;;;;5093183;28;20506;-67
2023/03/17 10:54:34;;;;;;;4.40;2.30;;;;;;;;;;5099432;28;20455;-65
2023/03/17 10:57:01;;;;;;;4.77;3.00;;;;;;;;;;5098869;28;20482;-67
2023/03/17 10:59:29;;;;;;;6.10;3.57;;;;;;;;;;5099170;28;20447;-67
2023/03/17 11:01:58;;;;;;;3.40;2.70;;;;;;;;;;5094206;28;20509;-67
2023/03/17 11:04:32;;;;;;;4.40;2.50;;;;;;;;;;5096687;28;20447;-67
2023/03/17 11:06:59;;;;;;;5.03;2.67;;;;;;;;;;5095303;28;20493;-67
2023/03/17 11:09:28;;;;;;;3.57;2.90;;;;;;;;;;5095199;28;20463;-67
2023/03/17 11:12:01;;;;;;;3.53;2.70;;;;;;;;;;5093838;28;20482;-67
2023/03/17 11:14:28;;;;;;;5.50;2.83;;;;;;;;;;5093548;28;20440;-67
2023/03/17 11:16:55;;;;;;;5.63;3.63;;;;;;;;;;5093232;28;20765;-67
2023/03/17 11:19:25;;;;;;;4.70;2.60;;;;;;;;;;5089513;28;20527;-67
2023/03/17 11:21:54;;;;;;;3.73;3.00;;;;;;;;;;5093233;28;20657;-66
2023/03/17 11:24:24;;;;;;;3.53;2.90;;;;;;;;;;5099711;28;20470;-67
2023/03/17 11:27:02;;;;;;;4.73;3.50;;;;;;;;;;5091551;28;20483;-67
2023/03/17 11:29:36;;;;;;;4.73;2.93;;;;;;;;;;5090816;28;20458;-67
2023/03/17 11:32:09;;;;;;;8.13;2.87;;;;;;;;;;5092871;28;20550;-67
2023/03/17 11:34:40;;;;;;;3.70;2.50;;;;;;;;;;5096488;28;20475;-66
2023/03/17 11:37:13;;;;;;;4.50;3.03;;;;;;;;;;5097758;28;20475;-67
2023/03/17 11:39:45;;;;;;;5.40;3.30;;;;;;;;;;5099813;28;20945;-66
2023/03/17 11:42:16;;;;;;;3.40;2.70;;;;;;;;;;5102045;28;20493;-66
2023/03/17 11:44:57;;;;;;;3.30;2.97;;;;;;;;;;5100393;28;20806;-66
2023/03/17 11:47:30;;;;;;;4.50;2.73;;;;;;;;;;5095653;28;20518;-66
2023/03/17 11:50:02;;;;;;;4.07;2.70;;;;;;;;;;5099425;28;20479;-67
2023/03/17 11:52:32;;;;;;;5.03;3.10;;;;;;;;;;5093812;28;20473;-66
2023/03/17 11:55:03;;;;;;;3.97;3.00;;;;;;;;;;5102060;28;20439;-67
2023/03/17 11:57:33;;;;;;;3.97;2.33;;;;;;;;;;5095133;28;20547;-67
2023/03/17 12:00:03;;;;;;;4.63;3.10;;;;;;;;;;5102284;28;20486;-67
2023/03/17 12:02:31;;;;;;;4.20;2.40;;;;;;;;;;5100166;28;20975;-67
2023/03/17 12:05:00;;;;;;;4.07;2.43;;;;;;;;;;5099993;28;20442;-67
2023/03/17 12:07:29;;;;;;;4.77;2.87;;;;;;;;;;5098902;28;20502;-68
2023/03/17 12:10:00;;;;;;;5.17;2.67;;;;;;;;;;5096606;28;20519;-66
2023/03/17 12:12:29;;;;;;;6.03;3.10;;;;;;;;;;5102185;28;20475;-66
2023/03/17 12:14:59;;;;;;;7.30;2.60;;;;;;;;;;5101143;28;20482;-66
2023/03/17 12:17:28;;;;;;;3.97;2.20;;;;;;;;;;5094133;28;20584;-66
2023/03/17 12:19:58;;;;;;;4.17;2.37;;;;;;;;;;5100400;28;20459;-66
2023/03/17 12:22:27;;;;;;;3.83;2.27;;;;;;;;;;5097205;28;20532;-66
2023/03/17 12:25:01;;;;;;;3.50;3.10;;;;;;;;;;5096609;28;20444;-66
2023/03/17 12:27:29;;;;;;;2.90;2.57;;;;;;;;;;5097227;28;20486;-66
2023/03/17 12:30:01;;;;;;;2.90;2.33;;;;;;;;;;5095659;28;20517;-66
2023/03/17 12:32:32;;;;;;;3.50;2.40;;;;;;;;;;5089311;28;20970;-66
2023/03/17 12:34:59;;;;;;;5.43;2.50;;;;;;;;;;5093949;28;20481;-66
2023/03/17 12:37:27;;;;;;;4.00;2.83;;;;;;;;;;5101687;28;20532;-66
2023/03/17 12:39:57;;;;;;;6.73;2.70;;;;;;;;;;5096719;28;20451;-66
2023/03/17 12:42:45;;;;;;;3.70;2.83;;;;;;;;;;5091546;28;20470;-66
2023/03/17 12:45:24;;;;;;;3.77;2.60;;;;;;;;;;5098345;28;20464;-66
2023/03/17 12:47:56;;;;;;;3.47;2.83;;;;;;;;;;5095351;28;20949;-65
2023/03/17 12:50:44;;;;;;;4.00;2.73;;;;;;;;;;5096146;28;20547;-67
2023/03/17 12:53:22;;;;;;;3.30;2.30;;;;;;;;;;5089388;28;20479;-66
2023/03/17 12:55:50;;;;;;;4.10;2.60;;;;;;;;;;5084257;28;20482;-66
2023/03/17 12:58:25;;;;;;;3.67;2.13;;;;;;;;;;5095428;28;20465;-66
2023/03/17 13:00:59;;;;;;;8.87;3.10;;;;;;;;;;5089632;28;20505;-66
2023/03/17 13:03:26;;;;;;;4.10;2.70;;;;;;;;;;5097921;28;20490;-67
2023/03/17 13:05:54;;;;;;;5.93;2.53;;;;;;;;;;5085775;28;20483;-66
2023/03/17 13:08:24;;;;;;;4.73;2.47;;;;;;;;;;5092733;28;20466;-62
2023/03/17 13:10:51;;;;;;;3.80;2.30;;;;;;;;;;5089950;28;20467;-64
2023/03/17 13:13:36;;;;;;;5.33;2.60;;;;;;;;;;5097966;28;20471;-64
2023/03/17 13:16:05;;;;;;;4.53;2.60;;;;;;;;;;5099920;28;20487;-65
2023/03/17 13:18:50;;;;;;;5.10;2.60;;;;;;;;;;5095094;28;20443;-64
2023/03/17 13:21:22;;;;;;;3.70;2.60;;;;;;;;;;5093260;28;20508;-64
2023/03/17 13:23:53;;;;;;;3.20;2.30;;;;;;;;;;5088316;28;20436;-65
2023/03/17 13:26:21;;;;;;;3.40;2.70;;;;;;;;;;5090732;28;20560;-63
2023/03/17 13:28:49;;;;;;;3.70;2.37;;;;;;;;;;5097760;28;20447;-64
2023/03/17 13:31:32;;;;;;;4.10;2.40;;;;;;;;;;5090728;28;20471;-64
2023/03/17 13:34:03;;;;;;;3.60;2.53;;;;;;;;;;5091182;28;20506;-65
2023/03/17 13:36:36;;;;;;;3.50;2.10;;;;;;;;;;5087433;28;20573;-63
2023/03/17 13:39:19;;;;;;;3.50;2.43;;;;;;;;;;5094211;28;20449;-65
2023/03/17 13:41:56;;;;;;;5.40;2.90;;;;;;;;;;5097744;28;20474;-65
2023/03/17 13:44:33;;;;;;;3.20;2.20;;;;;;;;;;5098279;28;20463;-65
2023/03/17 13:47:14;;;;;;;4.97;2.50;;;;;;;;;;5098481;28;20838;-66
2023/03/17 13:49:46;;;;;;;5.00;2.10;;;;;;;;;;5091150;28;20463;-64
2023/03/17 13:52:13;;;;;;;5.73;2.50;;;;;;;;;;5090684;28;20475;-63
2023/03/17 13:54:41;;;;;;;3.77;2.40;;;;;;;;;;5092814;28;20456;-66
2023/03/17 13:57:25;;;;;;;6.13;2.97;;;;;;;;;;5092757;28;20484;-65
2023/03/17 13:59:56;;;;;;;2.73;2.50;;;;;;;;;;5080894;28;20542;-67
2023/03/17 14:02:27;;;;;;;6.57;3.10;;;;;;;;;;5090975;28;20484;-60
2023/03/17 14:04:55;;;;;;;4.03;2.60;;;;;;;;;;5092829;28;20455;-66
2023/03/17 14:07:23;;;;;;;6.00;2.77;;;;;;;;;;5096003;28;20484;-64
2023/03/17 14:09:52;;;;;;;2.93;2.20;;;;;;;;;;5090133;28;20466;-64
2023/03/17 14:12:21;;;;;;;4.20;2.10;;;;;;;;;;5099413;28;20482;-66
2023/03/17 14:14:51;;;;;;;4.30;3.07;;;;;;;;;;5099690;28;20455;-64
2023/03/17 14:17:20;;;;;;;4.90;2.60;;;;;;;;;;5095022;28;20929;-64
2023/03/17 14:20:07;;;;;;;3.63;2.63;;;;;;;;;;5097520;28;20543;-65
2023/03/17 14:22:39;;;;;;;4.77;2.70;;;;;;;;;;5096210;28;20451;-66
2023/03/17 14:25:07;;;;;;;5.33;2.93;;;;;;;;;;5095315;28;20454;-65
2023/03/17 14:27:36;;;;;;;4.53;2.47;;;;;;;;;;5089973;28;20467;-63
2023/03/17 14:30:08;;;;;;;4.17;2.70;;;;;;;;;;5096646;28;20451;-67
2023/03/17 14:32:35;;;;;;;4.07;2.80;;;;;;;;;;5092670;28;20539;-67
2023/03/17 14:35:04;;;;;;;3.50;2.70;;;;;;;;;;5093094;28;20443;-63
2023/03/17 14:37:32;;;;;;;4.40;3.03;;;;;;;;;;5096624;28;20518;-62
2023/03/17 14:39:59;;;;;;;7.30;3.50;;;;;;;;;;5093165;28;20455;-64
2023/03/17 14:42:26;;;;;;;4.70;3.03;;;;;;;;;;5095426;28;20504;-65
2023/03/17 14:44:59;;;;;;;5.30;2.70;;;;;;;;;;5092209;28;20505;-63
2023/03/17 14:47:26;;;;;;;4.73;2.67;;;;;;;;;;5084921;28;20480;-65
2023/03/17 14:49:53;;;;;;;4.33;2.90;;;;;;;;;;5099632;28;20459;-66